Terminal Aerodrome Forecast
Issued by NWS Charleston, WV

Current Version | Previous Version | Graphics & Text | Print | Product List | Glossary On
Versions: 1 2 3 4 5 6 7 8 9 10 11 12 13 14 15 16 17 18 19 20 21 22 23 24 25 26 27 28
000
FTUS41 KRLX 251946 AAA
TAFHTS
TAF AMD
KHTS 251946Z 2520/2618 23009KT P6SM BKN080
     FM252100 23007KT P6SM VCSH BKN050
     FM260300 18004KT 6SM BR BKN050
     FM261700 20008KT P6SM VCTS BKN035CB=

USA.gov is the U.S. government's official web portal to all federal, state and local government web resources and services.